Larsen Bay, Alaska
Current Conditions -  °F | °C
As of 6:53 PM on Sunday 25 Jan 2015 (Local Time) from PADQ Reporting Station
Scattered Clouds Scattered Clouds  
Wind Chill: 11°   Ceiling: Unl
Heat Index: 20°   Visibility: 10mi
Dew Point: 12°   Wind: 7mph
Humidity: 71%   Direction: 280°W
Pressure: 29.86"   Gusts: NA
Location:  57.53°N, 153.99°W
Report Text: PADQ 260353Z 28006KT 10SM FEW030 SCT120 M07/M11 A2986 RMK AO2 SLP112 T10671111
Loading
Personal Weather Stations






























Interactive Weather Map New forecast layout! Learn more

10-Day Weather Forecast

Advertisements
Track Severe Weather on mobile